sensor_id;sensor_type;location;lat;lon;timestamp;P1;durP1;ratioP1;P2;durP2;ratioP2
65315;SDS011;51920;53.952;10.292;2024-03-08T00:00:45;20.88;;;9.13;;
65315;SDS011;51920;53.952;10.292;2024-03-08T00:03:12;20.50;;;9.00;;
65315;SDS011;51920;53.952;10.292;2024-03-08T00:05:42;20.05;;;8.98;;
65315;SDS011;51920;53.952;10.292;2024-03-08T00:08:09;19.98;;;9.13;;
65315;SDS011;51920;53.952;10.292;2024-03-08T00:10:36;19.17;;;8.93;;
65315;SDS011;51920;53.952;10.292;2024-03-08T00:13:05;21.15;;;8.90;;
65315;SDS011;51920;53.952;10.292;2024-03-08T00:15:33;18.40;;;8.93;;
65315;SDS011;51920;53.952;10.292;2024-03-08T00:18:01;21.73;;;8.55;;
65315;SDS011;51920;53.952;10.292;2024-03-08T00:20:28;18.33;;;8.80;;
65315;SDS011;51920;53.952;10.292;2024-03-08T00:22:55;19.13;;;8.93;;
65315;SDS011;51920;53.952;10.292;2024-03-08T00:25:24;19.30;;;8.93;;
65315;SDS011;51920;53.952;10.292;2024-03-08T00:27:51;21.98;;;8.82;;
65315;SDS011;51920;53.952;10.292;2024-03-08T00:30:22;19.17;;;8.40;;
65315;SDS011;51920;53.952;10.292;2024-03-08T00:32:50;22.08;;;8.68;;
65315;SDS011;51920;53.952;10.292;2024-03-08T00:35:17;19.83;;;8.30;;
65315;SDS011;51920;53.952;10.292;2024-03-08T00:37:44;20.42;;;8.68;;
65315;SDS011;51920;53.952;10.292;2024-03-08T00:40:14;20.63;;;8.10;;
65315;SDS011;51920;53.952;10.292;2024-03-08T00:42:41;20.50;;;8.38;;
65315;SDS011;51920;53.952;10.292;2024-03-08T00:45:10;20.83;;;8.65;;
65315;SDS011;51920;53.952;10.292;2024-03-08T00:47:38;20.83;;;9.03;;
65315;SDS011;51920;53.952;10.292;2024-03-08T00:50:05;21.38;;;8.38;;
65315;SDS011;51920;53.952;10.292;2024-03-08T00:52:32;19.45;;;8.25;;
65315;SDS011;51920;53.952;10.292;2024-03-08T00:55:01;18.70;;;7.93;;
65315;SDS011;51920;53.952;10.292;2024-03-08T00:57:28;22.88;;;9.10;;
65315;SDS011;51920;53.952;10.292;2024-03-08T00:59:56;18.50;;;8.30;;
65315;SDS011;51920;53.952;10.292;2024-03-08T01:02:25;20.60;;;8.30;;
65315;SDS011;51920;53.952;10.292;2024-03-08T01:04:52;19.70;;;8.40;;
65315;SDS011;51920;53.952;10.292;2024-03-08T01:07:19;21.75;;;8.38;;
65315;SDS011;51920;53.952;10.292;2024-03-08T01:09:46;19.85;;;8.50;;
65315;SDS011;51920;53.952;10.292;2024-03-08T01:12:13;18.70;;;7.93;;
65315;SDS011;51920;53.952;10.292;2024-03-08T01:14:41;19.48;;;8.10;;
65315;SDS011;51920;53.952;10.292;2024-03-08T01:17:08;19.48;;;8.07;;
65315;SDS011;51920;53.952;10.292;2024-03-08T01:19:36;19.63;;;8.82;;
65315;SDS011;51920;53.952;10.292;2024-03-08T01:22:03;20.60;;;8.30;;
65315;SDS011;51920;53.952;10.292;2024-03-08T01:24:30;22.57;;;8.73;;
65315;SDS011;51920;53.952;10.292;2024-03-08T01:26:57;19.55;;;7.97;;
65315;SDS011;51920;53.952;10.292;2024-03-08T01:29:24;20.00;;;8.05;;
65315;SDS011;51920;53.952;10.292;2024-03-08T01:31:50;20.70;;;8.85;;
65315;SDS011;51920;53.952;10.292;2024-03-08T01:34:19;19.05;;;8.13;;
65315;SDS011;51920;53.952;10.292;2024-03-08T01:36:46;17.70;;;7.93;;
65315;SDS011;51920;53.952;10.292;2024-03-08T01:39:13;19.70;;;7.78;;
65315;SDS011;51920;53.952;10.292;2024-03-08T01:41:40;19.50;;;7.90;;
65315;SDS011;51920;53.952;10.292;2024-03-08T01:44:07;19.35;;;8.23;;
65315;SDS011;51920;53.952;10.292;2024-03-08T01:46:35;19.67;;;8.35;;
65315;SDS011;51920;53.952;10.292;2024-03-08T01:49:03;20.47;;;8.10;;
65315;SDS011;51920;53.952;10.292;2024-03-08T01:51:30;21.60;;;8.63;;
65315;SDS011;51920;53.952;10.292;2024-03-08T01:53:57;18.98;;;8.63;;
65315;SDS011;51920;53.952;10.292;2024-03-08T01:56:28;19.23;;;7.60;;
65315;SDS011;51920;53.952;10.292;2024-03-08T01:58:55;24.02;;;9.07;;
65315;SDS011;51920;53.952;10.292;2024-03-08T02:01:22;19.70;;;8.57;;
65315;SDS011;51920;53.952;10.292;2024-03-08T02:03:49;19.73;;;8.02;;
65315;SDS011;51920;53.952;10.292;2024-03-08T02:06:17;19.38;;;8.15;;
65315;SDS011;51920;53.952;10.292;2024-03-08T02:08:44;20.35;;;8.20;;
65315;SDS011;51920;53.952;10.292;2024-03-08T02:11:12;19.08;;;8.13;;
65315;SDS011;51920;53.952;10.292;2024-03-08T02:13:39;21.60;;;8.40;;
65315;SDS011;51920;53.952;10.292;2024-03-08T02:16:06;21.27;;;8.55;;
65315;SDS011;51920;53.952;10.292;2024-03-08T02:18:35;23.67;;;8.25;;
65315;SDS011;51920;53.952;10.292;2024-03-08T02:21:03;20.08;;;8.45;;
65315;SDS011;51920;53.952;10.292;2024-03-08T02:23:31;20.38;;;9.10;;
65315;SDS011;51920;53.952;10.292;2024-03-08T02:25:59;23.07;;;8.47;;
65315;SDS011;51920;53.952;10.292;2024-03-08T02:28:26;20.25;;;8.68;;
65315;SDS011;51920;53.952;10.292;2024-03-08T02:30:53;19.17;;;8.30;;
65315;SDS011;51920;53.952;10.292;2024-03-08T02:33:23;20.23;;;8.07;;
65315;SDS011;51920;53.952;10.292;2024-03-08T02:35:51;22.23;;;8.50;;
65315;SDS011;51920;53.952;10.292;2024-03-08T02:38:19;22.27;;;8.93;;
65315;SDS011;51920;53.952;10.292;2024-03-08T02:40:48;17.65;;;8.02;;
65315;SDS011;51920;53.952;10.292;2024-03-08T02:43:16;20.13;;;8.80;;
65315;SDS011;51920;53.952;10.292;2024-03-08T02:45:44;22.05;;;8.80;;
65315;SDS011;51920;53.952;10.292;2024-03-08T02:48:12;19.98;;;8.35;;
65315;SDS011;51920;53.952;10.292;2024-03-08T02:50:40;21.60;;;9.00;;
65315;SDS011;51920;53.952;10.292;2024-03-08T02:53:09;22.77;;;8.73;;
65315;SDS011;51920;53.952;10.292;2024-03-08T02:55:39;20.25;;;8.25;;
65315;SDS011;51920;53.952;10.292;2024-03-08T02:58:08;22.83;;;8.23;;
65315;SDS011;51920;53.952;10.292;2024-03-08T03:00:36;22.38;;;9.57;;
65315;SDS011;51920;53.952;10.292;2024-03-08T03:03:05;25.40;;;9.57;;
65315;SDS011;51920;53.952;10.292;2024-03-08T03:05:33;23.17;;;9.30;;
65315;SDS011;51920;53.952;10.292;2024-03-08T03:08:03;21.92;;;8.93;;
65315;SDS011;51920;53.952;10.292;2024-03-08T03:10:35;21.67;;;9.07;;
65315;SDS011;51920;53.952;10.292;2024-03-08T03:13:02;21.70;;;9.15;;
65315;SDS011;51920;53.952;10.292;2024-03-08T03:15:31;21.37;;;9.03;;
65315;SDS011;51920;53.952;10.292;2024-03-08T03:17:58;23.90;;;9.57;;
65315;SDS011;51920;53.952;10.292;2024-03-08T03:20:25;25.02;;;9.70;;
65315;SDS011;51920;53.952;10.292;2024-03-08T03:22:59;25.33;;;9.43;;
65315;SDS011;51920;53.952;10.292;2024-03-08T03:25:28;24.25;;;8.95;;
65315;SDS011;51920;53.952;10.292;2024-03-08T03:28:02;23.93;;;9.77;;
65315;SDS011;51920;53.952;10.292;2024-03-08T03:30:29;26.33;;;9.60;;
65315;SDS011;51920;53.952;10.292;2024-03-08T03:33:00;24.67;;;9.38;;
65315;SDS011;51920;53.952;10.292;2024-03-08T03:35:28;22.90;;;9.27;;
65315;SDS011;51920;53.952;10.292;2024-03-08T03:37:58;23.13;;;9.40;;
65315;SDS011;51920;53.952;10.292;2024-03-08T03:40:33;24.10;;;10.23;;
65315;SDS011;51920;53.952;10.292;2024-03-08T03:43:01;24.15;;;8.65;;
65315;SDS011;51920;53.952;10.292;2024-03-08T03:45:29;22.75;;;10.00;;
65315;SDS011;51920;53.952;10.292;2024-03-08T03:48:04;23.75;;;8.70;;
65315;SDS011;51920;53.952;10.292;2024-03-08T03:50:33;24.35;;;9.70;;
65315;SDS011;51920;53.952;10.292;2024-03-08T03:53:03;25.47;;;9.60;;
65315;SDS011;51920;53.952;10.292;2024-03-08T03:55:31;23.13;;;8.68;;
65315;SDS011;51920;53.952;10.292;2024-03-08T03:57:58;26.98;;;9.63;;
65315;SDS011;51920;53.952;10.292;2024-03-08T04:00:27;25.67;;;9.23;;
65315;SDS011;51920;53.952;10.292;2024-03-08T04:02:54;21.98;;;9.13;;
65315;SDS011;51920;53.952;10.292;2024-03-08T04:05:25;23.27;;;8.63;;
65315;SDS011;51920;53.952;10.292;2024-03-08T04:07:52;23.65;;;9.70;;
65315;SDS011;51920;53.952;10.292;2024-03-08T04:10:19;23.73;;;10.10;;
65315;SDS011;51920;53.952;10.292;2024-03-08T04:12:46;30.40;;;9.30;;
65315;SDS011;51920;53.952;10.292;2024-03-08T04:15:14;25.58;;;10.05;;
65315;SDS011;51920;53.952;10.292;2024-03-08T04:17:41;26.20;;;10.47;;
65315;SDS011;51920;53.952;10.292;2024-03-08T04:20:09;24.70;;;9.85;;
65315;SDS011;51920;53.952;10.292;2024-03-08T04:22:37;26.80;;;10.80;;
65315;SDS011;51920;53.952;10.292;2024-03-08T04:25:05;32.40;;;9.93;;
65315;SDS011;51920;53.952;10.292;2024-03-08T04:27:33;26.60;;;10.15;;
65315;SDS011;51920;53.952;10.292;2024-03-08T04:30:02;26.83;;;9.50;;
65315;SDS011;51920;53.952;10.292;2024-03-08T04:32:30;23.90;;;9.38;;
65315;SDS011;51920;53.952;10.292;2024-03-08T04:34:59;28.55;;;10.35;;
65315;SDS011;51920;53.952;10.292;2024-03-08T04:37:27;30.02;;;10.43;;
65315;SDS011;51920;53.952;10.292;2024-03-08T04:39:56;26.58;;;10.10;;
65315;SDS011;51920;53.952;10.292;2024-03-08T04:42:23;25.90;;;9.53;;
65315;SDS011;51920;53.952;10.292;2024-03-08T04:44:51;26.95;;;9.98;;
65315;SDS011;51920;53.952;10.292;2024-03-08T04:47:20;24.83;;;10.55;;
65315;SDS011;51920;53.952;10.292;2024-03-08T04:49:47;29.60;;;11.07;;
65315;SDS011;51920;53.952;10.292;2024-03-08T04:52:13;27.48;;;10.60;;
65315;SDS011;51920;53.952;10.292;2024-03-08T04:54:40;29.83;;;11.77;;
65315;SDS011;51920;53.952;10.292;2024-03-08T04:57:07;31.33;;;10.95;;
65315;SDS011;51920;53.952;10.292;2024-03-08T04:59:35;31.98;;;11.77;;
65315;SDS011;51920;53.952;10.292;2024-03-08T05:02:02;28.58;;;11.25;;
65315;SDS011;51920;53.952;10.292;2024-03-08T05:04:30;32.10;;;11.05;;
65315;SDS011;51920;53.952;10.292;2024-03-08T05:06:56;33.50;;;12.20;;
65315;SDS011;51920;53.952;10.292;2024-03-08T05:09:23;31.15;;;11.45;;
65315;SDS011;51920;53.952;10.292;2024-03-08T05:11:51;31.15;;;10.93;;
65315;SDS011;51920;53.952;10.292;2024-03-08T05:14:18;35.28;;;12.45;;
65315;SDS011;51920;53.952;10.292;2024-03-08T05:16:46;31.27;;;11.93;;
65315;SDS011;51920;53.952;10.292;2024-03-08T05:19:16;34.47;;;12.07;;
65315;SDS011;51920;53.952;10.292;2024-03-08T05:21:45;34.28;;;13.07;;
65315;SDS011;51920;53.952;10.292;2024-03-08T05:24:12;34.70;;;11.65;;
65315;SDS011;51920;53.952;10.292;2024-03-08T05:26:41;33.03;;;11.80;;
65315;SDS011;51920;53.952;10.292;2024-03-08T05:29:08;33.35;;;12.93;;
65315;SDS011;51920;53.952;10.292;2024-03-08T05:31:38;36.83;;;12.63;;
65315;SDS011;51920;53.952;10.292;2024-03-08T05:34:16;34.08;;;12.25;;
65315;SDS011;51920;53.952;10.292;2024-03-08T05:36:43;32.42;;;12.50;;
65315;SDS011;51920;53.952;10.292;2024-03-08T05:39:12;34.80;;;12.27;;
65315;SDS011;51920;53.952;10.292;2024-03-08T05:41:39;33.03;;;13.13;;
65315;SDS011;51920;53.952;10.292;2024-03-08T05:44:07;35.13;;;12.87;;
65315;SDS011;51920;53.952;10.292;2024-03-08T05:46:35;35.90;;;13.18;;
65315;SDS011;51920;53.952;10.292;2024-03-08T05:49:05;39.30;;;13.60;;
65315;SDS011;51920;53.952;10.292;2024-03-08T05:51:33;38.40;;;13.18;;
65315;SDS011;51920;53.952;10.292;2024-03-08T05:54:04;39.53;;;13.30;;
65315;SDS011;51920;53.952;10.292;2024-03-08T05:56:32;38.53;;;13.63;;
65315;SDS011;51920;53.952;10.292;2024-03-08T05:58:59;40.20;;;13.75;;
65315;SDS011;51920;53.952;10.292;2024-03-08T06:01:27;34.88;;;13.57;;
65315;SDS011;51920;53.952;10.292;2024-03-08T06:03:55;31.60;;;12.63;;
65315;SDS011;51920;53.952;10.292;2024-03-08T06:06:23;35.30;;;13.30;;
65315;SDS011;51920;53.952;10.292;2024-03-08T06:08:51;33.97;;;13.27;;
65315;SDS011;51920;53.952;10.292;2024-03-08T06:11:19;36.58;;;13.77;;
65315;SDS011;51920;53.952;10.292;2024-03-08T06:13:47;23.25;;;9.93;;
65315;SDS011;51920;53.952;10.292;2024-03-08T06:16:14;36.42;;;14.13;;
65315;SDS011;51920;53.952;10.292;2024-03-08T06:18:41;41.08;;;15.15;;
65315;SDS011;51920;53.952;10.292;2024-03-08T06:21:08;36.60;;;14.40;;
65315;SDS011;51920;53.952;10.292;2024-03-08T06:23:38;38.83;;;15.00;;
65315;SDS011;51920;53.952;10.292;2024-03-08T06:26:06;39.67;;;14.80;;
65315;SDS011;51920;53.952;10.292;2024-03-08T06:28:33;39.67;;;15.02;;
65315;SDS011;51920;53.952;10.292;2024-03-08T06:31:03;40.10;;;14.70;;
65315;SDS011;51920;53.952;10.292;2024-03-08T06:33:31;37.00;;;14.47;;
65315;SDS011;51920;53.952;10.292;2024-03-08T06:35:59;40.00;;;15.15;;
65315;SDS011;51920;53.952;10.292;2024-03-08T06:38:26;42.50;;;15.45;;
65315;SDS011;51920;53.952;10.292;2024-03-08T06:40:53;36.05;;;14.00;;
65315;SDS011;51920;53.952;10.292;2024-03-08T06:43:21;42.75;;;15.45;;
65315;SDS011;51920;53.952;10.292;2024-03-08T06:45:48;37.63;;;14.27;;
65315;SDS011;51920;53.952;10.292;2024-03-08T06:48:18;36.38;;;14.55;;
65315;SDS011;51920;53.952;10.292;2024-03-08T06:50:46;38.83;;;13.70;;
65315;SDS011;51920;53.952;10.292;2024-03-08T06:53:14;44.30;;;15.05;;
65315;SDS011;51920;53.952;10.292;2024-03-08T06:55:42;39.08;;;14.20;;
65315;SDS011;51920;53.952;10.292;2024-03-08T06:58:11;39.20;;;13.67;;
65315;SDS011;51920;53.952;10.292;2024-03-08T07:00:38;37.15;;;13.48;;
65315;SDS011;51920;53.952;10.292;2024-03-08T07:03:08;42.88;;;14.80;;
65315;SDS011;51920;53.952;10.292;2024-03-08T07:05:38;40.90;;;15.02;;
65315;SDS011;51920;53.952;10.292;2024-03-08T07:08:07;40.00;;;13.93;;
65315;SDS011;51920;53.952;10.292;2024-03-08T07:10:34;39.67;;;14.53;;
65315;SDS011;51920;53.952;10.292;2024-03-08T07:13:02;39.13;;;14.60;;
65315;SDS011;51920;53.952;10.292;2024-03-08T07:15:29;40.58;;;14.98;;
65315;SDS011;51920;53.952;10.292;2024-03-08T07:17:56;40.17;;;13.90;;
65315;SDS011;51920;53.952;10.292;2024-03-08T07:20:23;40.67;;;15.15;;
65315;SDS011;51920;53.952;10.292;2024-03-08T07:22:53;40.10;;;14.70;;
65315;SDS011;51920;53.952;10.292;2024-03-08T07:25:20;39.03;;;13.98;;
65315;SDS011;51920;53.952;10.292;2024-03-08T07:27:48;41.63;;;15.10;;
65315;SDS011;51920;53.952;10.292;2024-03-08T07:30:15;36.30;;;13.52;;
65315;SDS011;51920;53.952;10.292;2024-03-08T07:33:01;34.67;;;13.68;;
65315;SDS011;51920;53.952;10.292;2024-03-08T07:35:29;40.27;;;14.87;;
65315;SDS011;51920;53.952;10.292;2024-03-08T07:37:57;42.47;;;15.30;;
65315;SDS011;51920;53.952;10.292;2024-03-08T07:40:26;43.05;;;14.85;;
65315;SDS011;51920;53.952;10.292;2024-03-08T07:42:53;40.13;;;14.80;;
65315;SDS011;51920;53.952;10.292;2024-03-08T07:45:21;41.78;;;15.68;;
65315;SDS011;51920;53.952;10.292;2024-03-08T07:47:48;39.77;;;14.63;;
65315;SDS011;51920;53.952;10.292;2024-03-08T07:50:17;39.90;;;14.75;;
65315;SDS011;51920;53.952;10.292;2024-03-08T07:52:46;40.63;;;15.30;;
65315;SDS011;51920;53.952;10.292;2024-03-08T07:55:12;36.72;;;12.27;;
65315;SDS011;51920;53.952;10.292;2024-03-08T07:57:39;44.47;;;16.10;;
65315;SDS011;51920;53.952;10.292;2024-03-08T08:00:07;41.07;;;14.37;;
65315;SDS011;51920;53.952;10.292;2024-03-08T08:02:35;41.28;;;15.15;;
65315;SDS011;51920;53.952;10.292;2024-03-08T08:05:03;39.13;;;14.45;;
65315;SDS011;51920;53.952;10.292;2024-03-08T08:07:30;34.63;;;13.80;;
65315;SDS011;51920;53.952;10.292;2024-03-08T08:09:57;39.78;;;15.32;;
65315;SDS011;51920;53.952;10.292;2024-03-08T08:12:24;39.37;;;15.13;;
65315;SDS011;51920;53.952;10.292;2024-03-08T08:14:52;40.45;;;15.48;;
65315;SDS011;51920;53.952;10.292;2024-03-08T08:17:18;36.05;;;14.35;;
65315;SDS011;51920;53.952;10.292;2024-03-08T08:19:46;43.05;;;16.38;;
65315;SDS011;51920;53.952;10.292;2024-03-08T08:22:13;41.35;;;14.90;;
65315;SDS011;51920;53.952;10.292;2024-03-08T08:24:40;44.57;;;16.37;;
65315;SDS011;51920;53.952;10.292;2024-03-08T08:27:07;43.78;;;15.95;;
65315;SDS011;51920;53.952;10.292;2024-03-08T08:29:35;46.58;;;16.70;;
65315;SDS011;51920;53.952;10.292;2024-03-08T08:32:02;45.80;;;16.33;;
65315;SDS011;51920;53.952;10.292;2024-03-08T08:34:30;44.55;;;16.80;;
65315;SDS011;51920;53.952;10.292;2024-03-08T08:36:57;43.47;;;15.93;;
65315;SDS011;51920;53.952;10.292;2024-03-08T08:39:24;44.25;;;16.15;;
65315;SDS011;51920;53.952;10.292;2024-03-08T08:41:52;41.42;;;15.40;;
65315;SDS011;51920;53.952;10.292;2024-03-08T08:44:20;43.28;;;16.23;;
65315;SDS011;51920;53.952;10.292;2024-03-08T08:46:47;41.25;;;15.65;;
65315;SDS011;51920;53.952;10.292;2024-03-08T08:49:14;43.57;;;15.33;;
65315;SDS011;51920;53.952;10.292;2024-03-08T08:51:48;41.38;;;15.48;;
65315;SDS011;51920;53.952;10.292;2024-03-08T08:54:18;38.15;;;15.02;;
65315;SDS011;51920;53.952;10.292;2024-03-08T08:56:45;39.03;;;15.30;;
65315;SDS011;51920;53.952;10.292;2024-03-08T08:59:13;42.00;;;15.98;;
65315;SDS011;51920;53.952;10.292;2024-03-08T09:01:40;33.60;;;13.57;;
65315;SDS011;51920;53.952;10.292;2024-03-08T09:04:07;34.78;;;14.00;;
65315;SDS011;51920;53.952;10.292;2024-03-08T09:06:34;34.92;;;15.05;;
65315;SDS011;51920;53.952;10.292;2024-03-08T09:09:02;31.00;;;13.43;;
65315;SDS011;51920;53.952;10.292;2024-03-08T09:11:31;32.88;;;14.25;;
65315;SDS011;51920;53.952;10.292;2024-03-08T09:13:58;33.63;;;13.93;;
65315;SDS011;51920;53.952;10.292;2024-03-08T09:16:25;35.10;;;15.13;;
65315;SDS011;51920;53.952;10.292;2024-03-08T09:18:53;32.08;;;13.30;;
65315;SDS011;51920;53.952;10.292;2024-03-08T09:21:20;34.22;;;15.48;;
65315;SDS011;51920;53.952;10.292;2024-03-08T09:23:47;37.60;;;15.90;;
65315;SDS011;51920;53.952;10.292;2024-03-08T09:26:14;38.40;;;16.10;;
65315;SDS011;51920;53.952;10.292;2024-03-08T09:28:44;34.25;;;14.35;;
65315;SDS011;51920;53.952;10.292;2024-03-08T09:31:12;30.70;;;13.48;;
65315;SDS011;51920;53.952;10.292;2024-03-08T09:33:39;32.97;;;14.18;;
65315;SDS011;51920;53.952;10.292;2024-03-08T09:36:06;31.60;;;13.38;;
65315;SDS011;51920;53.952;10.292;2024-03-08T09:38:34;33.27;;;14.93;;
65315;SDS011;51920;53.952;10.292;2024-03-08T09:41:01;33.17;;;15.23;;
65315;SDS011;51920;53.952;10.292;2024-03-08T09:43:28;34.95;;;15.50;;
65315;SDS011;51920;53.952;10.292;2024-03-08T09:45:55;30.95;;;14.15;;
65315;SDS011;51920;53.952;10.292;2024-03-08T09:48:23;28.85;;;13.32;;
65315;SDS011;51920;53.952;10.292;2024-03-08T09:50:52;32.73;;;13.57;;
65315;SDS011;51920;53.952;10.292;2024-03-08T09:53:20;30.63;;;13.05;;
65315;SDS011;51920;53.952;10.292;2024-03-08T09:55:49;30.02;;;13.82;;
65315;SDS011;51920;53.952;10.292;2024-03-08T09:58:16;34.15;;;14.20;;
65315;SDS011;51920;53.952;10.292;2024-03-08T10:00:46;29.65;;;13.18;;
65315;SDS011;51920;53.952;10.292;2024-03-08T10:03:13;31.73;;;13.37;;
65315;SDS011;51920;53.952;10.292;2024-03-08T10:05:44;29.17;;;12.80;;
65315;SDS011;51920;53.952;10.292;2024-03-08T10:08:11;30.27;;;13.65;;
65315;SDS011;51920;53.952;10.292;2024-03-08T10:10:38;30.33;;;13.15;;
65315;SDS011;51920;53.952;10.292;2024-03-08T10:13:09;28.10;;;13.10;;
65315;SDS011;51920;53.952;10.292;2024-03-08T10:15:36;26.73;;;12.20;;
65315;SDS011;51920;53.952;10.292;2024-03-08T10:18:05;28.15;;;13.40;;
65315;SDS011;51920;53.952;10.292;2024-03-08T10:20:33;30.23;;;13.05;;
65315;SDS011;51920;53.952;10.292;2024-03-08T10:23:00;30.83;;;13.20;;
65315;SDS011;51920;53.952;10.292;2024-03-08T10:25:32;31.27;;;13.65;;
65315;SDS011;51920;53.952;10.292;2024-03-08T10:27:59;28.00;;;12.43;;
65315;SDS011;51920;53.952;10.292;2024-03-08T10:30:30;28.80;;;12.23;;
65315;SDS011;51920;53.952;10.292;2024-03-08T10:32:57;31.08;;;12.80;;
65315;SDS011;51920;53.952;10.292;2024-03-08T10:35:25;30.67;;;13.85;;
65315;SDS011;51920;53.952;10.292;2024-03-08T10:37:53;31.42;;;13.40;;
65315;SDS011;51920;53.952;10.292;2024-03-08T10:40:27;31.17;;;12.90;;
65315;SDS011;51920;53.952;10.292;2024-03-08T10:42:58;31.08;;;13.57;;
65315;SDS011;51920;53.952;10.292;2024-03-08T10:48:02;31.02;;;13.20;;
65315;SDS011;51920;53.952;10.292;2024-03-08T10:50:36;29.92;;;13.95;;
65315;SDS011;51920;53.952;10.292;2024-03-08T10:53:05;27.73;;;11.27;;
65315;SDS011;51920;53.952;10.292;2024-03-08T10:55:33;29.70;;;13.20;;
65315;SDS011;51920;53.952;10.292;2024-03-08T10:58:00;32.00;;;13.73;;
65315;SDS011;51920;53.952;10.292;2024-03-08T11:00:27;29.38;;;13.25;;
65315;SDS011;51920;53.952;10.292;2024-03-08T11:02:54;28.00;;;12.88;;
65315;SDS011;51920;53.952;10.292;2024-03-08T11:10:48;32.00;;;13.40;;
65315;SDS011;51920;53.952;10.292;2024-03-08T11:16:07;27.90;;;11.70;;
65315;SDS011;51920;53.952;10.292;2024-03-08T11:18:36;23.67;;;11.07;;
65315;SDS011;51920;53.952;10.292;2024-03-08T11:21:04;27.38;;;12.75;;
65315;SDS011;51920;53.952;10.292;2024-03-08T11:23:39;33.22;;;13.35;;
65315;SDS011;51920;53.952;10.292;2024-03-08T11:26:22;31.73;;;13.73;;
65315;SDS011;51920;53.952;10.292;2024-03-08T11:28:51;28.88;;;12.43;;
65315;SDS011;51920;53.952;10.292;2024-03-08T11:31:23;31.17;;;13.10;;
65315;SDS011;51920;53.952;10.292;2024-03-08T11:33:52;31.20;;;13.23;;
65315;SDS011;51920;53.952;10.292;2024-03-08T11:36:21;30.02;;;12.80;;
65315;SDS011;51920;53.952;10.292;2024-03-08T11:38:50;34.85;;;14.05;;
65315;SDS011;51920;53.952;10.292;2024-03-08T11:41:20;29.00;;;13.02;;
65315;SDS011;51920;53.952;10.292;2024-03-08T11:43:49;29.87;;;13.13;;
65315;SDS011;51920;53.952;10.292;2024-03-08T11:46:27;32.88;;;13.77;;
65315;SDS011;51920;53.952;10.292;2024-03-08T11:48:54;33.50;;;14.00;;
65315;SDS011;51920;53.952;10.292;2024-03-08T11:51:22;32.10;;;13.52;;
65315;SDS011;51920;53.952;10.292;2024-03-08T11:53:50;27.58;;;12.68;;
65315;SDS011;51920;53.952;10.292;2024-03-08T11:56:17;28.83;;;13.60;;
65315;SDS011;51920;53.952;10.292;2024-03-08T11:58:53;32.17;;;14.30;;
65315;SDS011;51920;53.952;10.292;2024-03-08T12:01:25;29.90;;;13.82;;
65315;SDS011;51920;53.952;10.292;2024-03-08T12:03:55;32.55;;;13.77;;
65315;SDS011;51920;53.952;10.292;2024-03-08T12:06:26;28.60;;;13.40;;
65315;SDS011;51920;53.952;10.292;2024-03-08T12:09:02;30.07;;;12.90;;
65315;SDS011;51920;53.952;10.292;2024-03-08T12:11:29;31.00;;;13.32;;
65315;SDS011;51920;53.952;10.292;2024-03-08T12:13:58;29.05;;;13.75;;
65315;SDS011;51920;53.952;10.292;2024-03-08T12:16:25;31.33;;;13.18;;
65315;SDS011;51920;53.952;10.292;2024-03-08T12:18:52;30.02;;;13.00;;
65315;SDS011;51920;53.952;10.292;2024-03-08T12:21:20;31.87;;;13.70;;
65315;SDS011;51920;53.952;10.292;2024-03-08T12:23:50;29.63;;;12.73;;
65315;SDS011;51920;53.952;10.292;2024-03-08T12:26:29;32.63;;;13.68;;
65315;SDS011;51920;53.952;10.292;2024-03-08T12:29:18;29.80;;;12.68;;
65315;SDS011;51920;53.952;10.292;2024-03-08T12:31:53;29.00;;;12.85;;
65315;SDS011;51920;53.952;10.292;2024-03-08T12:34:25;29.77;;;13.03;;
65315;SDS011;51920;53.952;10.292;2024-03-08T12:36:54;31.95;;;12.98;;
65315;SDS011;51920;53.952;10.292;2024-03-08T12:39:22;30.65;;;13.45;;
65315;SDS011;51920;53.952;10.292;2024-03-08T12:41:53;34.33;;;14.23;;
65315;SDS011;51920;53.952;10.292;2024-03-08T12:44:21;32.40;;;13.25;;
65315;SDS011;51920;53.952;10.292;2024-03-08T12:46:48;31.37;;;13.80;;
65315;SDS011;51920;53.952;10.292;2024-03-08T12:49:19;33.83;;;14.25;;
65315;SDS011;51920;53.952;10.292;2024-03-08T12:51:48;30.25;;;13.77;;
65315;SDS011;51920;53.952;10.292;2024-03-08T12:54:16;28.33;;;12.90;;
65315;SDS011;51920;53.952;10.292;2024-03-08T12:56:43;29.15;;;13.18;;
65315;SDS011;51920;53.952;10.292;2024-03-08T12:59:10;31.47;;;13.37;;
65315;SDS011;51920;53.952;10.292;2024-03-08T13:01:36;31.33;;;13.35;;
65315;SDS011;51920;53.952;10.292;2024-03-08T13:04:04;31.92;;;13.10;;
65315;SDS011;51920;53.952;10.292;2024-03-08T13:06:33;29.75;;;13.07;;
65315;SDS011;51920;53.952;10.292;2024-03-08T13:09:00;31.85;;;14.13;;
65315;SDS011;51920;53.952;10.292;2024-03-08T13:11:32;31.33;;;13.07;;
65315;SDS011;51920;53.952;10.292;2024-03-08T13:14:03;35.90;;;13.82;;
65315;SDS011;51920;53.952;10.292;2024-03-08T13:16:32;31.35;;;13.82;;
65315;SDS011;51920;53.952;10.292;2024-03-08T13:19:01;29.60;;;13.25;;
65315;SDS011;51920;53.952;10.292;2024-03-08T13:21:28;33.72;;;14.15;;
65315;SDS011;51920;53.952;10.292;2024-03-08T13:23:56;33.27;;;13.90;;
65315;SDS011;51920;53.952;10.292;2024-03-08T13:26:26;31.17;;;13.68;;
65315;SDS011;51920;53.952;10.292;2024-03-08T13:28:59;33.10;;;13.43;;
65315;SDS011;51920;53.952;10.292;2024-03-08T13:31:26;30.85;;;12.95;;
65315;SDS011;51920;53.952;10.292;2024-03-08T13:33:53;30.88;;;13.38;;
65315;SDS011;51920;53.952;10.292;2024-03-08T13:36:25;32.03;;;13.57;;
65315;SDS011;51920;53.952;10.292;2024-03-08T13:38:55;30.83;;;13.15;;
65315;SDS011;51920;53.952;10.292;2024-03-08T13:41:25;31.70;;;12.88;;
65315;SDS011;51920;53.952;10.292;2024-03-08T13:43:54;33.17;;;14.07;;
65315;SDS011;51920;53.952;10.292;2024-03-08T13:46:22;31.90;;;13.98;;
65315;SDS011;51920;53.952;10.292;2024-03-08T13:48:51;30.30;;;11.87;;
65315;SDS011;51920;53.952;10.292;2024-03-08T13:51:27;32.15;;;14.30;;
65315;SDS011;51920;53.952;10.292;2024-03-08T13:53:54;30.42;;;12.20;;
65315;SDS011;51920;53.952;10.292;2024-03-08T13:56:21;30.33;;;12.88;;
65315;SDS011;51920;53.952;10.292;2024-03-08T13:58:48;32.63;;;14.20;;
65315;SDS011;51920;53.952;10.292;2024-03-08T14:01:16;29.83;;;12.70;;
65315;SDS011;51920;53.952;10.292;2024-03-08T14:03:43;32.55;;;14.25;;
65315;SDS011;51920;53.952;10.292;2024-03-08T14:06:10;26.88;;;12.65;;
65315;SDS011;51920;53.952;10.292;2024-03-08T14:08:47;31.73;;;12.82;;
65315;SDS011;51920;53.952;10.292;2024-03-08T14:11:14;27.38;;;10.75;;
65315;SDS011;51920;53.952;10.292;2024-03-08T14:13:42;24.57;;;11.57;;
65315;SDS011;51920;53.952;10.292;2024-03-08T14:16:11;28.67;;;12.35;;
65315;SDS011;51920;53.952;10.292;2024-03-08T14:18:39;31.45;;;13.20;;
65315;SDS011;51920;53.952;10.292;2024-03-08T14:21:06;32.90;;;14.15;;
65315;SDS011;51920;53.952;10.292;2024-03-08T14:23:35;29.02;;;11.70;;
65315;SDS011;51920;53.952;10.292;2024-03-08T14:26:03;34.57;;;15.77;;
65315;SDS011;51920;53.952;10.292;2024-03-08T14:28:31;35.85;;;15.18;;
65315;SDS011;51920;53.952;10.292;2024-03-08T14:30:59;35.80;;;15.00;;